sensor_id;sensor_type;location;lat;lon;timestamp;pressure;altitude;pressure_sealevel;temperature;humidity
9335;BME280;4706;41.844;26.082;2023-03-04T00:01:14;100980.41;;;7.73;75.87
9335;BME280;4706;41.844;26.082;2023-03-04T00:03:40;100985.34;;;7.56;77.03
9335;BME280;4706;41.844;26.082;2023-03-04T00:06:06;100964.44;;;7.29;78.07
9335;BME280;4706;41.844;26.082;2023-03-04T00:08:31;100984.44;;;7.40;78.43
9335;BME280;4706;41.844;26.082;2023-03-04T00:10:57;100978.97;;;7.30;79.03
9335;BME280;4706;41.844;26.082;2023-03-04T00:13:22;100980.66;;;7.41;77.84
9335;BME280;4706;41.844;26.082;2023-03-04T00:15:48;100981.16;;;7.33;78.06
9335;BME280;4706;41.844;26.082;2023-03-04T00:18:14;100975.94;;;7.26;78.21
9335;BME280;4706;41.844;26.082;2023-03-04T00:20:40;100978.69;;;7.32;77.89
9335;BME280;4706;41.844;26.082;2023-03-04T00:23:06;100987.47;;;7.34;77.81
9335;BME280;4706;41.844;26.082;2023-03-04T00:25:31;100988.25;;;7.29;78.06
9335;BME280;4706;41.844;26.082;2023-03-04T00:27:58;100987.97;;;7.25;77.93
9335;BME280;4706;41.844;26.082;2023-03-04T00:30:24;100992.66;;;7.30;77.65
9335;BME280;4706;41.844;26.082;2023-03-04T00:32:49;100990.78;;;7.46;77.09
9335;BME280;4706;41.844;26.082;2023-03-04T00:35:15;100982.03;;;7.59;76.91
9335;BME280;4706;41.844;26.082;2023-03-04T00:37:41;100972.44;;;7.51;77.11
9335;BME280;4706;41.844;26.082;2023-03-04T00:40:07;100983.38;;;7.51;76.72
9335;BME280;4706;41.844;26.082;2023-03-04T00:42:33;100983.94;;;7.53;76.73
9335;BME280;4706;41.844;26.082;2023-03-04T00:44:58;100975.22;;;7.62;77.06
9335;BME280;4706;41.844;26.082;2023-03-04T00:47:24;100981.81;;;7.76;76.92
9335;BME280;4706;41.844;26.082;2023-03-04T00:49:49;100978.25;;;7.91;75.49
9335;BME280;4706;41.844;26.082;2023-03-04T00:52:15;100982.66;;;7.87;75.85
9335;BME280;4706;41.844;26.082;2023-03-04T00:54:40;100979.88;;;7.82;76.10
9335;BME280;4706;41.844;26.082;2023-03-04T00:57:06;100984.22;;;7.62;76.39
9335;BME280;4706;41.844;26.082;2023-03-04T00:59:31;100988.88;;;7.62;76.09
9335;BME280;4706;41.844;26.082;2023-03-04T01:01:57;100990.56;;;7.68;76.49
9335;BME280;4706;41.844;26.082;2023-03-04T01:04:22;100987.81;;;7.78;75.59
9335;BME280;4706;41.844;26.082;2023-03-04T01:06:48;100985.91;;;7.84;74.76
9335;BME280;4706;41.844;26.082;2023-03-04T01:09:13;100991.66;;;7.72;74.07
9335;BME280;4706;41.844;26.082;2023-03-04T01:11:39;100982.53;;;7.36;76.04
9335;BME280;4706;41.844;26.082;2023-03-04T01:14:04;100989.34;;;7.28;76.53
9335;BME280;4706;41.844;26.082;2023-03-04T01:16:30;100994.22;;;7.16;76.50
9335;BME280;4706;41.844;26.082;2023-03-04T01:18:55;100995.88;;;7.22;76.54
9335;BME280;4706;41.844;26.082;2023-03-04T01:21:21;100997.56;;;7.33;76.35
9335;BME280;4706;41.844;26.082;2023-03-04T01:23:46;100995.88;;;7.22;76.34
9335;BME280;4706;41.844;26.082;2023-03-04T01:26:12;100984.41;;;7.25;77.02
9335;BME280;4706;41.844;26.082;2023-03-04T01:28:37;100994.78;;;7.18;78.10
9335;BME280;4706;41.844;26.082;2023-03-04T01:31:03;100985.22;;;7.15;78.53
9335;BME280;4706;41.844;26.082;2023-03-04T01:33:29;100975.09;;;7.16;78.30
9335;BME280;4706;41.844;26.082;2023-03-04T01:35:55;100986.91;;;7.26;78.02
9335;BME280;4706;41.844;26.082;2023-03-04T01:38:21;100983.59;;;7.24;78.54
9335;BME280;4706;41.844;26.082;2023-03-04T01:40:47;100981.97;;;7.28;78.52
9335;BME280;4706;41.844;26.082;2023-03-04T01:43:24;100976.72;;;7.22;78.93
9335;BME280;4706;41.844;26.082;2023-03-04T01:45:51;100987.38;;;7.13;79.26
9335;BME280;4706;41.844;26.082;2023-03-04T01:48:22;100986.78;;;7.01;79.28
9335;BME280;4706;41.844;26.082;2023-03-04T01:50:49;100983.47;;;6.94;80.05
9335;BME280;4706;41.844;26.082;2023-03-04T01:53:19;100987.56;;;6.91;79.87
9335;BME280;4706;41.844;26.082;2023-03-04T01:55:47;100968.50;;;7.17;78.58
9335;BME280;4706;41.844;26.082;2023-03-04T01:58:12;100971.88;;;7.34;79.04
9335;BME280;4706;41.844;26.082;2023-03-04T02:00:38;100970.78;;;7.40;79.00
9335;BME280;4706;41.844;26.082;2023-03-04T02:03:06;100972.88;;;7.18;79.13
9335;BME280;4706;41.844;26.082;2023-03-04T02:05:34;100984.34;;;7.04;80.00
9335;BME280;4706;41.844;26.082;2023-03-04T02:08:02;100982.34;;;6.90;80.53
9335;BME280;4706;41.844;26.082;2023-03-04T02:10:29;100975.56;;;6.97;79.92
9335;BME280;4706;41.844;26.082;2023-03-04T02:12:54;100974.44;;;6.93;79.35
9335;BME280;4706;41.844;26.082;2023-03-04T02:15:20;100979.28;;;6.76;79.99
9335;BME280;4706;41.844;26.082;2023-03-04T02:17:48;100977.63;;;6.70;79.54
9335;BME280;4706;41.844;26.082;2023-03-04T02:23:21;100978.69;;;6.69;79.07
9335;BME280;4706;41.844;26.082;2023-03-04T02:26:16;100984.16;;;6.69;79.64
9335;BME280;4706;41.844;26.082;2023-03-04T02:28:43;100976.00;;;6.79;78.96
9335;BME280;4706;41.844;26.082;2023-03-04T02:31:37;100977.94;;;6.84;78.29
9335;BME280;4706;41.844;26.082;2023-03-04T02:34:14;100988.88;;;6.78;78.68
9335;BME280;4706;41.844;26.082;2023-03-04T02:36:42;100985.09;;;6.90;77.87
9335;BME280;4706;41.844;26.082;2023-03-04T02:39:20;100964.91;;;6.96;77.34
9335;BME280;4706;41.844;26.082;2023-03-04T02:41:51;100955.38;;;7.14;77.43
9335;BME280;4706;41.844;26.082;2023-03-04T02:44:29;100961.38;;;7.11;77.01
9335;BME280;4706;41.844;26.082;2023-03-04T02:46:55;100958.97;;;7.19;77.27
9335;BME280;4706;41.844;26.082;2023-03-04T02:49:22;100952.69;;;7.29;76.65
9335;BME280;4706;41.844;26.082;2023-03-04T02:52:16;100943.94;;;7.27;76.86
9335;BME280;4706;41.844;26.082;2023-03-04T02:54:42;100937.13;;;7.35;76.20
9335;BME280;4706;41.844;26.082;2023-03-04T02:57:09;100939.03;;;7.34;76.41
9335;BME280;4706;41.844;26.082;2023-03-04T02:59:37;100942.03;;;7.33;76.08
9335;BME280;4706;41.844;26.082;2023-03-04T03:02:03;100938.22;;;7.34;75.85
9335;BME280;4706;41.844;26.082;2023-03-04T03:04:29;100927.78;;;7.25;75.98
9335;BME280;4706;41.844;26.082;2023-03-04T03:06:54;100936.22;;;7.09;75.96
9335;BME280;4706;41.844;26.082;2023-03-04T03:09:20;100930.41;;;6.95;76.57
9335;BME280;4706;41.844;26.082;2023-03-04T03:11:46;100951.78;;;7.03;76.39
9335;BME280;4706;41.844;26.082;2023-03-04T03:14:11;100960.19;;;6.91;76.58
9335;BME280;4706;41.844;26.082;2023-03-04T03:16:36;100943.72;;;6.76;76.53
9335;BME280;4706;41.844;26.082;2023-03-04T03:19:02;100953.56;;;6.72;77.14
9335;BME280;4706;41.844;26.082;2023-03-04T03:21:28;100959.31;;;6.70;76.78
9335;BME280;4706;41.844;26.082;2023-03-04T03:23:53;100967.88;;;6.89;75.89
9335;BME280;4706;41.844;26.082;2023-03-04T03:26:19;100956.16;;;7.04;75.04
9335;BME280;4706;41.844;26.082;2023-03-04T03:28:45;100963.50;;;6.93;76.18
9335;BME280;4706;41.844;26.082;2023-03-04T03:31:11;100961.59;;;6.94;76.32
9335;BME280;4706;41.844;26.082;2023-03-04T03:33:36;100978.81;;;6.89;75.88
9335;BME280;4706;41.844;26.082;2023-03-04T03:36:03;100991.91;;;6.87;74.99
9335;BME280;4706;41.844;26.082;2023-03-04T03:38:28;100989.44;;;6.86;74.46
9335;BME280;4706;41.844;26.082;2023-03-04T03:40:54;100992.66;;;6.72;75.71
9335;BME280;4706;41.844;26.082;2023-03-04T03:43:19;100984.16;;;6.69;76.57
9335;BME280;4706;41.844;26.082;2023-03-04T03:45:45;100980.09;;;6.76;76.60
9335;BME280;4706;41.844;26.082;2023-03-04T03:48:10;100985.91;;;6.85;76.75
9335;BME280;4706;41.844;26.082;2023-03-04T03:50:36;100980.97;;;6.87;77.06
9335;BME280;4706;41.844;26.082;2023-03-04T03:53:02;100977.94;;;6.84;76.86
9335;BME280;4706;41.844;26.082;2023-03-04T03:55:28;100989.69;;;6.79;77.04
9335;BME280;4706;41.844;26.082;2023-03-04T03:57:53;100983.63;;;6.72;77.18
9335;BME280;4706;41.844;26.082;2023-03-04T04:00:19;100979.09;;;6.93;76.29
9335;BME280;4706;41.844;26.082;2023-03-04T04:02:44;100978.88;;;7.10;76.55
9335;BME280;4706;41.844;26.082;2023-03-04T04:05:11;100978.94;;;7.25;75.74
9335;BME280;4706;41.844;26.082;2023-03-04T04:07:37;100973.19;;;7.21;75.98
9335;BME280;4706;41.844;26.082;2023-03-04T04:10:04;100979.69;;;7.10;76.81
9335;BME280;4706;41.844;26.082;2023-03-04T04:12:30;100974.50;;;7.09;76.46
9335;BME280;4706;41.844;26.082;2023-03-04T04:14:55;100990.69;;;7.15;76.33
9335;BME280;4706;41.844;26.082;2023-03-04T04:17:21;100990.34;;;7.01;76.75
9335;BME280;4706;41.844;26.082;2023-03-04T04:19:46;100977.94;;;6.84;77.17
9335;BME280;4706;41.844;26.082;2023-03-04T04:22:17;100985.31;;;6.83;77.04
9335;BME280;4706;41.844;26.082;2023-03-04T04:24:45;100981.50;;;6.84;76.18
9335;BME280;4706;41.844;26.082;2023-03-04T04:27:11;100982.00;;;6.76;76.19
9335;BME280;4706;41.844;26.082;2023-03-04T04:29:37;100973.22;;;6.69;75.59
9335;BME280;4706;41.844;26.082;2023-03-04T04:32:03;100974.28;;;6.63;76.64
9335;BME280;4706;41.844;26.082;2023-03-04T04:34:29;100967.66;;;6.53;76.63
9335;BME280;4706;41.844;26.082;2023-03-04T04:36:54;100976.97;;;6.52;77.41
9335;BME280;4706;41.844;26.082;2023-03-04T04:39:20;100961.66;;;6.51;77.79
9335;BME280;4706;41.844;26.082;2023-03-04T04:41:45;100975.66;;;6.65;76.98
9335;BME280;4706;41.844;26.082;2023-03-04T04:44:12;100971.78;;;6.56;77.52
9335;BME280;4706;41.844;26.082;2023-03-04T04:46:38;100981.53;;;6.89;76.67
9335;BME280;4706;41.844;26.082;2023-03-04T04:49:05;100972.31;;;6.58;77.10
9335;BME280;4706;41.844;26.082;2023-03-04T04:51:32;100971.16;;;6.44;78.31
9335;BME280;4706;41.844;26.082;2023-03-04T04:53:58;100971.41;;;6.42;78.28
9335;BME280;4706;41.844;26.082;2023-03-04T04:56:24;100977.69;;;6.38;78.85
9335;BME280;4706;41.844;26.082;2023-03-04T04:58:52;100976.03;;;6.37;78.72
9335;BME280;4706;41.844;26.082;2023-03-04T05:01:18;100973.09;;;6.43;78.66
9335;BME280;4706;41.844;26.082;2023-03-04T05:03:44;100971.25;;;6.59;78.48
9335;BME280;4706;41.844;26.082;2023-03-04T05:06:11;100970.22;;;6.70;78.36
9335;BME280;4706;41.844;26.082;2023-03-04T05:08:37;100968.09;;;6.82;77.83
9335;BME280;4706;41.844;26.082;2023-03-04T05:11:04;100960.41;;;6.74;77.48
9335;BME280;4706;41.844;26.082;2023-03-04T05:13:30;100951.31;;;6.59;77.98
9335;BME280;4706;41.844;26.082;2023-03-04T05:15:56;100960.91;;;6.66;77.73
9335;BME280;4706;41.844;26.082;2023-03-04T05:18:23;100966.19;;;6.83;77.06
9335;BME280;4706;41.844;26.082;2023-03-04T05:20:54;100960.19;;;6.81;76.33
9335;BME280;4706;41.844;26.082;2023-03-04T05:23:20;100976.81;;;6.74;76.80
9335;BME280;4706;41.844;26.082;2023-03-04T05:25:47;100972.09;;;6.65;77.22
9335;BME280;4706;41.844;26.082;2023-03-04T05:28:13;100977.53;;;6.60;77.12
9335;BME280;4706;41.844;26.082;2023-03-04T05:30:39;100986.84;;;6.59;77.51
9335;BME280;4706;41.844;26.082;2023-03-04T05:33:06;100983.75;;;6.50;78.00
9335;BME280;4706;41.844;26.082;2023-03-04T05:35:36;100983.72;;;6.40;78.30
9335;BME280;4706;41.844;26.082;2023-03-04T05:38:03;100976.63;;;6.44;78.35
9335;BME280;4706;41.844;26.082;2023-03-04T05:40:29;100986.88;;;6.64;77.97
9335;BME280;4706;41.844;26.082;2023-03-04T05:42:55;100986.97;;;6.84;78.15
9335;BME280;4706;41.844;26.082;2023-03-04T05:45:21;100973.41;;;7.04;77.42
9335;BME280;4706;41.844;26.082;2023-03-04T05:47:47;100970.97;;;7.08;77.24
9335;BME280;4706;41.844;26.082;2023-03-04T05:50:12;100978.34;;;7.08;77.21
9335;BME280;4706;41.844;26.082;2023-03-04T05:52:38;100980.53;;;7.11;76.63
9335;BME280;4706;41.844;26.082;2023-03-04T05:55:04;100983.53;;;7.09;76.36
9335;BME280;4706;41.844;26.082;2023-03-04T05:57:30;100990.31;;;6.96;78.07
9335;BME280;4706;41.844;26.082;2023-03-04T05:59:55;100983.59;;;7.19;76.93
9335;BME280;4706;41.844;26.082;2023-03-04T06:02:21;100983.06;;;7.33;77.04
9335;BME280;4706;41.844;26.082;2023-03-04T06:04:46;100992.66;;;7.35;76.31
9335;BME280;4706;41.844;26.082;2023-03-04T06:07:12;100995.72;;;7.49;75.69
9335;BME280;4706;41.844;26.082;2023-03-04T06:09:37;100996.50;;;7.44;75.58
9335;BME280;4706;41.844;26.082;2023-03-04T06:12:03;101004.69;;;7.34;76.58
9335;BME280;4706;41.844;26.082;2023-03-04T06:14:28;100999.25;;;7.44;77.22
9335;BME280;4706;41.844;26.082;2023-03-04T06:16:54;100990.56;;;7.68;76.13
9335;BME280;4706;41.844;26.082;2023-03-04T06:19:19;100997.94;;;7.77;76.57
9335;BME280;4706;41.844;26.082;2023-03-04T06:21:45;100994.69;;;7.75;76.63
9335;BME280;4706;41.844;26.082;2023-03-04T06:24:11;101007.00;;;7.88;76.18
9335;BME280;4706;41.844;26.082;2023-03-04T06:26:36;100999.34;;;7.75;77.23
9335;BME280;4706;41.844;26.082;2023-03-04T06:29:03;101009.47;;;7.85;76.67
9335;BME280;4706;41.844;26.082;2023-03-04T06:31:29;101001.53;;;7.93;76.19
9335;BME280;4706;41.844;26.082;2023-03-04T06:33:54;101008.38;;;7.91;76.95
9335;BME280;4706;41.844;26.082;2023-03-04T06:36:20;101002.38;;;7.99;77.04
9335;BME280;4706;41.844;26.082;2023-03-04T06:38:45;100997.69;;;7.99;77.16
9335;BME280;4706;41.844;26.082;2023-03-04T06:41:11;101008.66;;;8.04;77.71
9335;BME280;4706;41.844;26.082;2023-03-04T06:43:37;101016.06;;;7.99;78.46
9335;BME280;4706;41.844;26.082;2023-03-04T06:46:03;101008.94;;;8.13;78.55
9335;BME280;4706;41.844;26.082;2023-03-04T06:48:28;101009.50;;;8.36;77.95
9335;BME280;4706;41.844;26.082;2023-03-04T06:50:54;100999.63;;;8.55;78.08
9335;BME280;4706;41.844;26.082;2023-03-04T06:53:19;100999.53;;;8.91;76.92
9335;BME280;4706;41.844;26.082;2023-03-04T06:55:46;101009.09;;;8.98;76.97
9335;BME280;4706;41.844;26.082;2023-03-04T06:58:11;100995.13;;;9.00;76.07
9335;BME280;4706;41.844;26.082;2023-03-04T07:00:37;101000.31;;;9.07;74.51
9335;BME280;4706;41.844;26.082;2023-03-04T07:03:02;100991.28;;;9.01;75.18
9335;BME280;4706;41.844;26.082;2023-03-04T07:05:28;101008.25;;;9.08;75.82
9335;BME280;4706;41.844;26.082;2023-03-04T07:07:53;101003.06;;;9.02;76.20
9335;BME280;4706;41.844;26.082;2023-03-04T07:10:19;101000.34;;;8.96;76.20
9335;BME280;4706;41.844;26.082;2023-03-04T07:12:45;101010.97;;;9.13;75.91
9335;BME280;4706;41.844;26.082;2023-03-04T07:15:13;101009.91;;;9.14;75.54
9335;BME280;4706;41.844;26.082;2023-03-04T07:17:38;101011.25;;;9.17;76.33
9335;BME280;4706;41.844;26.082;2023-03-04T07:20:04;101001.09;;;9.17;75.95
9335;BME280;4706;41.844;26.082;2023-03-04T07:22:29;101006.94;;;8.95;77.47
9335;BME280;4706;41.844;26.082;2023-03-04T07:24:55;101026.00;;;9.31;77.96
9335;BME280;4706;41.844;26.082;2023-03-04T07:27:20;101012.94;;;9.67;77.06
9335;BME280;4706;41.844;26.082;2023-03-04T07:29:46;101003.09;;;10.01;76.28
9335;BME280;4706;41.844;26.082;2023-03-04T07:32:11;101004.84;;;10.26;75.33
9335;BME280;4706;41.844;26.082;2023-03-04T07:34:37;100997.03;;;10.38;74.74
9335;BME280;4706;41.844;26.082;2023-03-04T07:37:03;101003.44;;;10.28;74.33
9335;BME280;4706;41.844;26.082;2023-03-04T07:39:28;100995.78;;;10.25;74.39
9335;BME280;4706;41.844;26.082;2023-03-04T07:41:53;101000.47;;;10.19;74.04
9335;BME280;4706;41.844;26.082;2023-03-04T07:44:19;101005.53;;;10.02;75.17
9335;BME280;4706;41.844;26.082;2023-03-04T07:46:45;100998.44;;;9.96;75.37
9335;BME280;4706;41.844;26.082;2023-03-04T07:49:12;100998.91;;;9.69;76.48
9335;BME280;4706;41.844;26.082;2023-03-04T07:51:38;101004.09;;;9.76;76.09
9335;BME280;4706;41.844;26.082;2023-03-04T07:54:03;101008.81;;;9.65;76.58
9335;BME280;4706;41.844;26.082;2023-03-04T07:56:32;100995.78;;;9.41;77.74
9335;BME280;4706;41.844;26.082;2023-03-04T07:58:58;100991.13;;;9.32;78.88
9335;BME280;4706;41.844;26.082;2023-03-04T08:01:34;100994.00;;;9.11;80.52
9335;BME280;4706;41.844;26.082;2023-03-04T08:04:00;100992.22;;;9.36;79.77
9335;BME280;4706;41.844;26.082;2023-03-04T08:06:27;100986.38;;;9.47;79.32
9335;BME280;4706;41.844;26.082;2023-03-04T08:09:04;100990.56;;;9.40;79.96
9335;BME280;4706;41.844;26.082;2023-03-04T08:11:31;100986.22;;;9.29;80.23
9335;BME280;4706;41.844;26.082;2023-03-04T08:13:56;100982.72;;;9.62;80.45
9335;BME280;4706;41.844;26.082;2023-03-04T08:16:23;100983.59;;;9.58;79.93
9335;BME280;4706;41.844;26.082;2023-03-04T08:18:51;100982.97;;;9.66;80.90
9335;BME280;4706;41.844;26.082;2023-03-04T08:21:19;100980.13;;;9.86;79.74
9335;BME280;4706;41.844;26.082;2023-03-04T08:23:45;100980.00;;;9.96;79.89
9335;BME280;4706;41.844;26.082;2023-03-04T08:26:15;100979.38;;;10.10;79.76
9335;BME280;4706;41.844;26.082;2023-03-04T08:28:41;100980.34;;;10.29;80.48
9335;BME280;4706;41.844;26.082;2023-03-04T08:31:06;100983.59;;;10.60;78.75
9335;BME280;4706;41.844;26.082;2023-03-04T08:33:33;100982.16;;;10.92;78.05
9335;BME280;4706;41.844;26.082;2023-03-04T08:35:58;100972.38;;;11.05;77.54
9335;BME280;4706;41.844;26.082;2023-03-04T08:38:24;100976.31;;;11.41;75.76
9335;BME280;4706;41.844;26.082;2023-03-04T08:40:54;100994.47;;;11.42;75.24
9335;BME280;4706;41.844;26.082;2023-03-04T08:43:21;100986.41;;;11.27;76.25
9335;BME280;4706;41.844;26.082;2023-03-04T08:45:46;100983.97;;;11.26;77.83
9335;BME280;4706;41.844;26.082;2023-03-04T08:48:12;100985.41;;;11.80;76.87
9335;BME280;4706;41.844;26.082;2023-03-04T08:50:37;100995.00;;;12.20;74.16
9335;BME280;4706;41.844;26.082;2023-03-04T08:53:03;100976.06;;;12.13;73.37
9335;BME280;4706;41.844;26.082;2023-03-04T08:55:29;100982.63;;;12.18;73.64
9335;BME280;4706;41.844;26.082;2023-03-04T08:57:54;100982.56;;;12.23;74.06
9335;BME280;4706;41.844;26.082;2023-03-04T09:00:20;100975.53;;;12.30;73.23
9335;BME280;4706;41.844;26.082;2023-03-04T09:02:46;100974.41;;;12.31;73.35
9335;BME280;4706;41.844;26.082;2023-03-04T09:05:12;100979.47;;;12.24;72.48
9335;BME280;4706;41.844;26.082;2023-03-04T09:07:37;100971.75;;;12.26;72.23
9335;BME280;4706;41.844;26.082;2023-03-04T09:10:03;100964.06;;;12.23;72.38
9335;BME280;4706;41.844;26.082;2023-03-04T09:12:29;100962.22;;;12.32;73.17
9335;BME280;4706;41.844;26.082;2023-03-04T09:14:54;100952.50;;;12.68;70.42
9335;BME280;4706;41.844;26.082;2023-03-04T09:17:20;100956.56;;;12.70;70.95
9335;BME280;4706;41.844;26.082;2023-03-04T09:19:45;100951.97;;;12.66;71.79
9335;BME280;4706;41.844;26.082;2023-03-04T09:22:11;100953.91;;;12.65;71.07
9335;BME280;4706;41.844;26.082;2023-03-04T09:24:36;100957.69;;;12.55;71.36
9335;BME280;4706;41.844;26.082;2023-03-04T09:27:02;100956.00;;;12.40;72.04
9335;BME280;4706;41.844;26.082;2023-03-04T09:29:27;100942.78;;;12.70;69.92
9335;BME280;4706;41.844;26.082;2023-03-04T09:31:53;100927.13;;;12.66;68.07
9335;BME280;4706;41.844;26.082;2023-03-04T09:34:19;100925.69;;;12.96;68.41
9335;BME280;4706;41.844;26.082;2023-03-04T09:36:44;100916.50;;;13.28;68.76
9335;BME280;4706;41.844;26.082;2023-03-04T09:39:10;100923.81;;;13.19;68.10
9335;BME280;4706;41.844;26.082;2023-03-04T09:41:46;100908.34;;;13.45;66.49
9335;BME280;4706;41.844;26.082;2023-03-04T09:44:26;100912.31;;;13.53;66.55
9335;BME280;4706;41.844;26.082;2023-03-04T09:46:54;100917.34;;;13.51;66.45
9335;BME280;4706;41.844;26.082;2023-03-04T09:49:23;100905.09;;;13.43;66.28
9335;BME280;4706;41.844;26.082;2023-03-04T09:57:28;100900.91;;;13.18;69.50
9335;BME280;4706;41.844;26.082;2023-03-04T10:00:06;100901.53;;;13.15;69.37
9335;BME280;4706;41.844;26.082;2023-03-04T10:05:23;100896.25;;;12.91;70.07
9335;BME280;4706;41.844;26.082;2023-03-04T10:07:59;100892.88;;;12.80;70.37
9335;BME280;4706;41.844;26.082;2023-03-04T10:10:36;100892.06;;;12.80;71.42
9335;BME280;4706;41.844;26.082;2023-03-04T10:13:21;100881.97;;;12.61;71.73
9335;BME280;4706;41.844;26.082;2023-03-04T10:15:49;100881.94;;;12.48;72.68
9335;BME280;4706;41.844;26.082;2023-03-04T10:18:32;100877.44;;;12.52;74.25
9335;BME280;4706;41.844;26.082;2023-03-04T10:21:05;100875.31;;;12.49;72.63
9335;BME280;4706;41.844;26.082;2023-03-04T10:23:33;100875.81;;;12.51;71.66
9335;BME280;4706;41.844;26.082;2023-03-04T10:26:01;100874.69;;;12.52;70.49
9335;BME280;4706;41.844;26.082;2023-03-04T10:28:35;100872.75;;;12.66;70.97
9335;BME280;4706;41.844;26.082;2023-03-04T10:33:35;100860.38;;;12.77;72.35
9335;BME280;4706;41.844;26.082;2023-03-04T10:36:05;100859.34;;;12.59;72.02
9335;BME280;4706;41.844;26.082;2023-03-04T10:38:40;100850.78;;;12.61;71.66
9335;BME280;4706;41.844;26.082;2023-03-04T10:41:19;100853.13;;;12.54;72.09
9335;BME280;4706;41.844;26.082;2023-03-04T10:46:30;100846.50;;;12.27;73.15
9335;BME280;4706;41.844;26.082;2023-03-04T10:48:55;100840.78;;;12.37;72.86
9335;BME280;4706;41.844;26.082;2023-03-04T10:51:24;100837.72;;;12.39;73.26
9335;BME280;4706;41.844;26.082;2023-03-04T10:53:56;100846.59;;;12.36;73.28
9335;BME280;4706;41.844;26.082;2023-03-04T10:56:42;100838.63;;;12.34;72.85
9335;BME280;4706;41.844;26.082;2023-03-04T11:01:55;100829.13;;;12.54;73.45
9335;BME280;4706;41.844;26.082;2023-03-04T11:04:25;100828.19;;;12.59;71.99
9335;BME280;4706;41.844;26.082;2023-03-04T11:06:51;100815.53;;;12.44;73.27
9335;BME280;4706;41.844;26.082;2023-03-04T11:09:23;100809.00;;;12.40;72.93
9335;BME280;4706;41.844;26.082;2023-03-04T11:11:49;100813.91;;;12.43;73.01
9335;BME280;4706;41.844;26.082;2023-03-04T11:14:23;100787.03;;;12.49;71.51
9335;BME280;4706;41.844;26.082;2023-03-04T11:16:57;100798.25;;;12.52;71.40
9335;BME280;4706;41.844;26.082;2023-03-04T11:19:28;100785.50;;;12.56;71.37
9335;BME280;4706;41.844;26.082;2023-03-04T11:21:56;100783.31;;;12.67;73.44
9335;BME280;4706;41.844;26.082;2023-03-04T11:24:27;100773.72;;;12.64;71.98
9335;BME280;4706;41.844;26.082;2023-03-04T11:27:07;100760.75;;;12.65;69.94
9335;BME280;4706;41.844;26.082;2023-03-04T11:32:13;100755.91;;;12.71;71.36
9335;BME280;4706;41.844;26.082;2023-03-04T11:37:23;100766.44;;;13.05;71.42
9335;BME280;4706;41.844;26.082;2023-03-04T11:39:54;100763.06;;;13.08;69.58
9335;BME280;4706;41.844;26.082;2023-03-04T11:44:54;100754.34;;;13.15;71.53
9335;BME280;4706;41.844;26.082;2023-03-04T12:00:30;100745.00;;;13.02;73.00
9335;BME280;4706;41.844;26.082;2023-03-04T12:03:30;100740.09;;;12.99;69.64
9335;BME280;4706;41.844;26.082;2023-03-04T12:14:40;100735.09;;;13.77;70.78
9335;BME280;4706;41.844;26.082;2023-03-04T12:20:02;100733.00;;;13.82;68.38
9335;BME280;4706;41.844;26.082;2023-03-04T12:28:02;100727.31;;;13.25;71.54
9335;BME280;4706;41.844;26.082;2023-03-04T12:30:53;100727.25;;;13.17;71.63
9335;BME280;4706;41.844;26.082;2023-03-04T12:33:34;100723.78;;;13.11;72.94
9335;BME280;4706;41.844;26.082;2023-03-04T12:36:24;100719.50;;;13.05;72.77
9335;BME280;4706;41.844;26.082;2023-03-04T12:39:14;100720.03;;;13.29;71.95
9335;BME280;4706;41.844;26.082;2023-03-04T12:45:13;100709.75;;;13.52;70.55
9335;BME280;4706;41.844;26.082;2023-03-04T12:48:08;100707.19;;;13.56;69.60
9335;BME280;4706;41.844;26.082;2023-03-04T12:51:07;100704.53;;;13.82;68.06
9335;BME280;4706;41.844;26.082;2023-03-04T12:56:21;100701.66;;;13.96;67.63
9335;BME280;4706;41.844;26.082;2023-03-04T12:58:48;100697.97;;;14.18;66.91
9335;BME280;4706;41.844;26.082;2023-03-04T13:04:17;100682.50;;;14.08;65.88
9335;BME280;4706;41.844;26.082;2023-03-04T13:09:41;100674.81;;;13.96;65.48
9335;BME280;4706;41.844;26.082;2023-03-04T13:12:15;100666.53;;;14.05;65.88
9335;BME280;4706;41.844;26.082;2023-03-04T13:17:39;100666.41;;;14.19;64.09
9335;BME280;4706;41.844;26.082;2023-03-04T13:25:28;100648.97;;;14.09;61.65
9335;BME280;4706;41.844;26.082;2023-03-04T13:35:48;100643.31;;;14.15;62.72
9335;BME280;4706;41.844;26.082;2023-03-04T13:43:47;100623.25;;;14.09;63.36
9335;BME280;4706;41.844;26.082;2023-03-04T13:51:35;100620.50;;;14.09;63.89
9335;BME280;4706;41.844;26.082;2023-03-04T13:54:40;100617.13;;;14.29;61.89
9335;BME280;4706;41.844;26.082;2023-03-04T13:57:17;100614.50;;;14.24;63.04
9335;BME280;4706;41.844;26.082;2023-03-04T14:00:02;100613.22;;;14.22;63.66
9335;BME280;4706;41.844;26.082;2023-03-04T14:02:33;100607.81;;;14.25;63.71
9335;BME280;4706;41.844;26.082;2023-03-04T14:05:00;100609.13;;;14.19;63.48
9335;BME280;4706;41.844;26.082;2023-03-04T14:07:36;100614.16;;;14.17;62.77
9335;BME280;4706;41.844;26.082;2023-03-04T14:10:21;100602.94;;;14.14;62.13
9335;BME280;4706;41.844;26.082;2023-03-04T14:12:55;100600.81;;;14.02;62.80
9335;BME280;4706;41.844;26.082;2023-03-04T14:15:25;100597.53;;;13.82;63.61
9335;BME280;4706;41.844;26.082;2023-03-04T14:18:02;100596.88;;;13.85;63.65
9335;BME280;4706;41.844;26.082;2023-03-04T14:23:01;100592.16;;;13.86;62.98
9335;BME280;4706;41.844;26.082;2023-03-04T14:25:29;100593.66;;;13.92;63.49
9335;BME280;4706;41.844;26.082;2023-03-04T14:28:10;100596.94;;;14.12;62.99
9335;BME280;4706;41.844;26.082;2023-03-04T14:30:36;100585.03;;;14.20;63.53
9335;BME280;4706;41.844;26.082;2023-03-04T14:33:06;100583.91;;;14.12;63.87
9335;BME280;4706;41.844;26.082;2023-03-04T14:35:33;100581.31;;;14.07;64.56
9335;BME280;4706;41.844;26.082;2023-03-04T14:38:14;100582.13;;;14.07;65.41
9335;BME280;4706;41.844;26.082;2023-03-04T14:40:57;100573.78;;;13.90;66.71
9335;BME280;4706;41.844;26.082;2023-03-04T14:43:26;100573.63;;;13.78;66.20
9335;BME280;4706;41.844;26.082;2023-03-04T14:45:55;100575.84;;;13.67;67.40
9335;BME280;4706;41.844;26.082;2023-03-04T14:48:28;100565.44;;;13.64;70.39
9335;BME280;4706;41.844;26.082;2023-03-04T14:50:56;100557.78;;;13.61;70.74
9335;BME280;4706;41.844;26.082;2023-03-04T14:53:24;100556.97;;;13.52;68.42